Time;durP1;ratioP1;P1;durP2;ratioP2;P2;SDS_P1;SDS_P2;PMS_P1;PMS_P2;Temp;Humidity;BMP_temperature;BMP_pressure;BME280_temperature;BME280_humidity;BME280_pressure;Samples;Min_cycle;Max_cycle;Signal;HPM_P1;HPM_P2
2021/04/25 00:03:14;;;;;;;1.90;1.30;;;21.20;42.50;;;;;;10447610;28;20217;-15
2021/04/25 00:08:37;;;;;;;2.43;1.40;;;21.20;42.50;;;;;;10456690;28;20192;-15
2021/04/25 00:13:58;;;;;;;2.00;1.50;;;21.10;42.60;;;;;;10458756;28;20220;-14
2021/04/25 00:19:20;;;;;;;2.87;1.50;;;21.10;42.50;;;;;;10459969;28;20694;-16
2021/04/25 00:24:42;;;;;;;2.37;1.20;;;21.20;42.40;;;;;;10459849;28;20212;-13
2021/04/25 00:30:06;;;;;;;3.27;1.50;;;21.20;42.30;;;;;;10459747;28;20197;-15
2021/04/25 00:35:28;;;;;;;1.57;1.17;;;21.20;42.80;;;;;;10458960;28;20220;-16
2021/04/25 00:40:50;;;;;;;2.77;1.43;;;21.20;42.60;;;;;;10458082;28;20195;-17
2021/04/25 00:46:12;;;;;;;3.87;1.67;;;21.20;42.40;;;;;;10442622;28;20221;-13
2021/04/25 00:51:34;;;;;;;1.83;1.20;;;21.30;42.10;;;;;;10459181;28;20216;-14
2021/04/25 00:56:56;;;;;;;2.47;1.33;;;21.20;42.30;;;;;;10434680;28;20210;-14
2021/04/25 01:02:18;;;;;;;1.83;1.13;;;21.20;42.40;;;;;;10419673;28;20182;-17
2021/04/25 01:07:39;;;;;;;1.80;1.17;;;21.20;42.20;;;;;;10423343;28;20381;-14
2021/04/25 01:13:02;;;;;;;2.67;1.30;;;21.30;42.20;;;;;;10418441;28;20226;-14
2021/04/25 01:18:23;;;;;;;2.30;1.20;;;21.20;42.30;;;;;;10418916;28;20673;-14
2021/04/25 01:23:46;;;;;;;1.80;1.10;;;21.20;42.40;;;;;;10419073;28;20243;-14
2021/04/25 01:29:08;;;;;;;2.13;1.30;;;21.30;42.20;;;;;;10418403;28;20201;-14
2021/04/25 01:34:29;;;;;;;2.83;1.20;;;21.30;42.20;;;;;;10435104;28;20225;-17
2021/04/25 01:39:52;;;;;;;1.43;1.10;;;21.20;42.30;;;;;;10456404;28;20201;-16
2021/04/25 01:45:16;;;;;;;2.40;1.20;;;21.20;42.40;;;;;;10455114;28;20209;-14
2021/04/25 01:50:38;;;;;;;3.00;1.40;;;21.30;42.20;;;;;;10455951;28;20692;-16
2021/04/25 01:56:02;;;;;;;2.80;1.07;;;21.30;42.80;;;;;;10443454;28;20689;-16
2021/04/25 02:01:24;;;;;;;1.43;1.03;;;21.20;42.30;;;;;;10417105;28;20221;-13
2021/04/25 02:06:46;;;;;;;1.63;1.20;;;21.20;42.30;;;;;;10376221;28;20214;-14
2021/04/25 02:12:08;;;;;;;1.97;1.20;;;21.30;42.00;;;;;;10375448;28;20214;-12
2021/04/25 02:17:30;;;;;;;3.53;1.47;;;21.20;42.40;;;;;;10375110;28;20759;-14
2021/04/25 02:22:52;;;;;;;1.50;1.30;;;21.20;42.50;;;;;;10373119;28;20543;-17
2021/04/25 02:28:15;;;;;;;2.07;1.10;;;21.20;42.30;;;;;;10372973;28;20268;-14
2021/04/25 02:33:36;;;;;;;1.27;1.17;;;21.30;42.20;;;;;;10407289;28;20643;-14
2021/04/25 02:38:58;;;;;;;4.07;1.40;;;21.30;42.30;;;;;;10456357;28;20251;-16
2021/04/25 02:44:20;;;;;;;2.43;1.40;;;21.20;42.40;;;;;;10439717;28;20228;-14
2021/04/25 02:49:42;;;;;;;1.63;1.23;;;21.20;42.10;;;;;;10456741;28;20212;-12
2021/04/25 02:55:05;;;;;;;1.40;0.73;;;21.20;42.10;;;;;;10449028;28;20228;-13
2021/04/25 03:00:29;;;;;;;1.80;1.13;;;21.20;42.10;;;;;;10415261;28;20205;-13
2021/04/25 03:05:53;;;;;;;1.90;1.00;;;21.20;42.10;;;;;;10415011;28;20221;-16
2021/04/25 03:11:14;;;;;;;1.73;1.17;;;21.20;42.30;;;;;;10415403;28;20280;-16
2021/04/25 03:16:37;;;;;;;1.37;1.00;;;21.20;42.00;;;;;;10413631;28;20221;-13
2021/04/25 03:21:58;;;;;;;2.00;1.10;;;21.20;41.90;;;;;;10421256;28;20205;-15
2021/04/25 03:27:20;;;;;;;2.13;1.03;;;21.20;42.10;;;;;;10412468;28;20263;-16
2021/04/25 03:32:43;;;;;;;2.83;1.20;;;21.30;41.90;;;;;;10411335;28;20217;-14
2021/04/25 03:38:05;;;;;;;2.53;1.10;;;21.30;41.80;;;;;;10419746;28;20204;-16
2021/04/25 03:43:26;;;;;;;1.83;1.00;;;21.20;42.20;;;;;;10419857;28;20213;-15
2021/04/25 03:48:49;;;;;;;2.23;1.00;;;21.20;42.20;;;;;;10418511;28;20201;-15
2021/04/25 03:54:10;;;;;;;1.60;0.87;;;21.20;41.90;;;;;;10418807;28;20225;-16
2021/04/25 03:59:32;;;;;;;0.90;0.70;;;21.30;42.00;;;;;;10377963;28;20218;-16
2021/04/25 04:04:55;;;;;;;1.90;1.03;;;21.30;42.00;;;;;;10379013;28;20708;-18
2021/04/25 04:10:17;;;;;;;1.97;1.30;;;21.20;42.00;;;;;;10378303;28;20205;-16
2021/04/25 04:15:38;;;;;;;1.50;1.00;;;21.10;42.10;;;;;;10378411;28;20217;-16
2021/04/25 04:21:01;;;;;;;1.43;0.90;;;21.10;42.30;;;;;;10439708;28;20196;-16
2021/04/25 04:26:22;;;;;;;1.03;0.70;;;21.20;42.10;;;;;;10460924;28;20217;-13
2021/04/25 04:31:44;;;;;;;1.97;1.00;;;21.30;42.00;;;;;;10460455;28;20209;-17
2021/04/25 04:37:06;;;;;;;1.53;0.93;;;21.30;41.80;;;;;;10442115;28;20233;-13
2021/04/25 04:42:28;;;;;;;1.83;0.80;;;21.30;41.80;;;;;;10460507;28;20197;-15
2021/04/25 04:47:50;;;;;;;1.23;1.00;;;21.10;42.00;;;;;;10448671;28;20205;-14
2021/04/25 04:53:12;;;;;;;1.63;1.10;;;21.30;41.90;;;;;;10412095;28;20651;-15
2021/04/25 04:58:34;;;;;;;2.47;1.10;;;21.20;41.80;;;;;;10418772;28;20198;-16
2021/04/25 05:03:55;;;;;;;1.50;1.00;;;21.30;42.00;;;;;;10418694;28;20276;-12
2021/04/25 05:09:18;;;;;;;1.50;1.17;;;21.20;41.80;;;;;;10418764;28;20190;-13
2021/04/25 05:14:39;;;;;;;1.70;0.93;;;21.20;41.70;;;;;;10425484;28;20236;-13
2021/04/25 05:20:01;;;;;;;1.93;0.83;;;21.30;41.70;;;;;;10418643;28;20201;-14
2021/04/25 05:25:23;;;;;;;1.47;0.80;;;21.40;41.60;;;;;;10433738;28;20213;-13
2021/04/25 05:30:45;;;;;;;1.03;0.77;;;21.40;41.40;;;;;;10460305;28;20193;-13
2021/04/25 05:36:07;;;;;;;1.20;0.93;;;21.40;41.60;;;;;;10434836;28;20229;-15
2021/04/25 05:41:29;;;;;;;2.00;1.10;;;21.30;41.70;;;;;;10417636;28;20194;-13
2021/04/25 05:46:51;;;;;;;1.70;0.87;;;21.40;41.40;;;;;;10417198;28;20248;-16
2021/04/25 05:52:12;;;;;;;1.23;0.80;;;21.40;41.50;;;;;;10416172;28;20221;-15
2021/04/25 05:57:35;;;;;;;2.13;1.13;;;21.40;41.50;;;;;;10441757;28;20217;-16
2021/04/25 06:02:57;;;;;;;2.07;0.93;;;21.40;41.80;;;;;;10455320;28;20185;-15
2021/04/25 06:08:19;;;;;;;1.77;0.93;;;21.40;41.60;;;;;;10455315;28;20215;-17
2021/04/25 06:13:41;;;;;;;1.67;0.80;;;21.50;41.60;;;;;;10453953;28;20224;-15
2021/04/25 06:19:03;;;;;;;1.80;1.00;;;21.50;41.70;;;;;;10450106;28;20193;-15
2021/04/25 06:24:25;;;;;;;2.03;0.77;;;21.40;41.70;;;;;;10457513;28;20209;-13
2021/04/25 06:29:47;;;;;;;1.43;0.80;;;21.40;41.30;;;;;;10440110;28;20194;-15
2021/04/25 06:35:11;;;;;;;2.50;1.13;;;21.50;41.40;;;;;;10414295;28;20220;-17
2021/04/25 06:40:36;;;;;;;1.50;0.83;;;21.40;41.60;;;;;;10409502;28;20682;-13
2021/04/25 06:45:58;;;;;;;2.40;0.93;;;21.50;41.50;;;;;;10413778;28;20221;-13
2021/04/25 06:51:20;;;;;;;1.27;0.90;;;21.50;41.30;;;;;;10410431;28;20210;-15
2021/04/25 06:56:43;;;;;;;1.93;1.07;;;21.50;41.30;;;;;;10414120;28;20213;-15
2021/04/25 07:02:05;;;;;;;2.13;0.93;;;21.50;41.30;;;;;;10411489;28;20221;-16
2021/04/25 07:07:27;;;;;;;1.43;0.80;;;21.60;41.10;;;;;;10412035;28;20245;-16
2021/04/25 07:12:48;;;;;;;1.93;0.90;;;21.60;41.00;;;;;;10412027;28;20225;-14
2021/04/25 07:18:11;;;;;;;0.93;0.80;;;21.50;41.30;;;;;;10413872;28;20194;-13
2021/04/25 07:23:32;;;;;;;2.10;0.90;;;21.60;41.10;;;;;;10408532;28;20212;-13
2021/04/25 07:28:54;;;;;;;1.77;0.70;;;21.60;41.00;;;;;;10414883;28;20201;-16
2021/04/25 07:34:17;;;;;;;2.10;0.93;;;21.70;41.30;;;;;;10412478;28;20217;-15
2021/04/25 07:39:39;;;;;;;3.07;1.00;;;21.70;41.10;;;;;;10412114;28;20210;-15
2021/04/25 07:45:03;;;;;;;1.53;0.80;;;21.80;40.90;;;;;;10414350;28;20213;-12
2021/04/25 07:50:26;;;;;;;1.70;0.73;;;21.70;40.90;;;;;;10441497;28;20196;-15
2021/04/25 07:55:47;;;;;;;1.93;0.70;;;21.70;41.10;;;;;;10439449;28;20581;-12
2021/04/25 08:01:09;;;;;;;1.90;1.00;;;21.70;41.10;;;;;;10411654;28;20194;-13
2021/04/25 08:06:31;;;;;;;1.37;0.90;;;21.80;40.90;;;;;;10411671;28;20218;-16
2021/04/25 08:11:54;;;;;;;1.10;0.77;;;21.80;41.00;;;;;;10411925;28;20221;-13
2021/04/25 08:17:16;;;;;;;1.17;0.60;;;21.80;41.10;;;;;;10438242;28;20217;-15
2021/04/25 08:22:38;;;;;;;2.13;0.97;;;21.80;40.60;;;;;;10450385;28;20601;-15
2021/04/25 08:28:00;;;;;;;1.60;1.03;;;21.90;41.10;;;;;;10482088;28;20193;-15
2021/04/25 08:33:22;;;;;;;1.27;0.80;;;21.80;40.60;;;;;;10461093;28;20236;-16
2021/04/25 08:38:45;;;;;;;1.53;0.70;;;21.80;40.50;;;;;;10460262;28;20196;-15
2021/04/25 08:44:08;;;;;;;1.73;0.80;;;21.80;40.40;;;;;;10459625;28;20218;-14
2021/04/25 08:49:31;;;;;;;3.63;1.00;;;21.80;40.30;;;;;;10456808;28;20204;-16
2021/04/25 08:54:54;;;;;;;2.10;0.70;;;21.90;40.10;;;;;;10450300;28;20221;-16
2021/04/25 09:00:17;;;;;;;2.20;0.73;;;21.90;40.10;;;;;;10414772;28;20205;-13
2021/04/25 09:05:38;;;;;;;2.53;0.50;;;21.90;40.00;;;;;;10419249;28;20717;-15
2021/04/25 09:11:01;;;;;;;1.87;0.83;;;22.00;40.00;;;;;;10416242;28;20521;-15
2021/04/25 09:16:27;;;;;;;1.20;0.70;;;22.10;39.80;;;;;;10429653;28;20571;-16
2021/04/25 09:21:56;;;;;;;2.13;0.90;;;22.00;29.60;;;;;;10412831;28;20194;-17
2021/04/25 09:27:26;;;;;;;2.93;0.97;;;21.50;27.80;;;;;;10420880;28;20341;-13
2021/04/25 09:32:48;;;;;;;1.37;0.90;;;20.80;26.10;;;;;;10417385;28;20667;-13
2021/04/25 09:38:11;;;;;;;2.70;0.80;;;20.20;27.00;;;;;;10417136;28;20213;-15
2021/04/25 09:43:40;;;;;;;0.67;0.50;;;20.50;27.80;;;;;;10417300;28;20221;-15
2021/04/25 09:49:04;;;;;;;2.97;1.10;;;20.20;27.10;;;;;;10417075;28;20196;-17
2021/04/25 09:54:25;;;;;;;4.03;1.00;;;20.10;27.30;;;;;;10414838;28;20224;-14
2021/04/25 09:59:51;;;;;;;0.63;0.50;;;19.70;26.90;;;;;;10448781;28;20201;-12
2021/04/25 10:05:14;;;;;;;2.50;0.70;;;19.70;28.40;;;;;;10454942;28;20284;-12
2021/04/25 10:10:37;;;;;;;1.07;0.50;;;20.10;28.00;;;;;;10431464;28;20198;-15
2021/04/25 10:15:59;;;;;;;1.80;0.60;;;20.30;27.90;;;;;;10414052;28;20584;-15
2021/04/25 10:21:21;;;;;;;1.57;0.70;;;20.30;28.30;;;;;;10413075;28;20200;-12
2021/04/25 10:26:52;;;;;;;1.83;0.70;;;20.40;27.70;;;;;;10412693;28;20268;-14
2021/04/25 10:32:18;;;;;;;1.17;0.50;;;20.30;28.10;;;;;;10412088;28;20214;-13
2021/04/25 10:37:40;;;;;;;0.87;0.43;;;20.40;27.80;;;;;;10410229;28;20701;-14
2021/04/25 10:43:05;;;;;;;2.20;0.60;;;20.40;28.40;;;;;;10416122;28;20208;-16
2021/04/25 10:48:30;;;;;;;1.33;0.70;;;20.40;28.40;;;;;;10415410;28;20194;-13
2021/04/25 10:54:04;;;;;;;1.50;0.47;;;20.40;28.40;;;;;;10430086;28;20232;-16
2021/04/25 10:59:27;;;;;;;1.53;0.43;;;20.40;27.50;;;;;;10374899;28;20218;-15
2021/04/25 11:05:07;;;;;;;2.60;0.50;;;20.30;27.90;;;;;;10373803;28;20214;-15
2021/04/25 11:10:45;;;;;;;2.80;0.70;;;20.30;27.90;;;;;;10374527;28;20281;-15
2021/04/25 11:16:08;;;;;;;1.17;0.50;;;20.30;27.80;;;;;;10414781;28;20232;-14
2021/04/25 11:21:57;;;;;;;0.60;0.33;;;20.20;27.80;;;;;;10413919;28;20239;-15
2021/04/25 11:27:35;;;;;;;1.87;0.43;;;20.30;28.30;;;;;;10415998;28;20248;-15
2021/04/25 11:32:57;;;;;;;1.10;0.53;;;20.40;27.80;;;;;;10373183;28;20628;-15
2021/04/25 11:38:18;;;;;;;1.83;0.60;;;20.30;27.70;;;;;;10373502;28;20214;-13
2021/04/25 11:43:42;;;;;;;1.77;0.50;;;20.30;28.10;;;;;;10413236;28;20240;-15
2021/04/25 11:49:05;;;;;;;0.60;0.33;;;20.30;28.20;;;;;;10373010;28;20257;-16
2021/04/25 11:54:27;;;;;;;0.37;0.30;;;20.20;28.40;;;;;;10375790;28;20222;-16
2021/04/25 11:59:54;;;;;;;0.80;0.60;;;20.20;28.40;;;;;;10429609;28;20699;-13
2021/04/25 12:05:19;;;;;;;1.57;0.57;;;20.20;28.50;;;;;;10435530;28;20213;-12
2021/04/25 12:10:43;;;;;;;1.27;1.00;;;20.20;28.70;;;;;;10462002;28;20207;-14
2021/04/25 12:16:06;;;;;;;0.60;0.40;;;20.30;28.00;;;;;;10437271;28;20221;-13
2021/04/25 12:21:28;;;;;;;0.73;0.57;;;20.20;28.00;;;;;;10419290;28;20711;-15
2021/04/25 12:26:50;;;;;;;4.17;0.50;;;20.10;28.30;;;;;;10440333;28;20247;-16
2021/04/25 12:32:19;;;;;;;1.30;0.50;;;20.10;28.10;;;;;;10461486;28;20217;-16
2021/04/25 12:37:42;;;;;;;1.77;0.60;;;20.30;30.30;;;;;;10418916;28;20230;-15
2021/04/25 12:43:08;;;;;;;1.40;0.43;;;20.50;32.30;;;;;;10417325;28;20248;-16
2021/04/25 12:48:39;;;;;;;0.47;0.37;;;20.80;33.20;;;;;;10417532;28;20198;-14
2021/04/25 12:54:09;;;;;;;1.50;0.30;;;20.90;33.70;;;;;;10419853;28;20240;-13
2021/04/25 12:59:34;;;;;;;0.80;0.50;;;21.00;33.90;;;;;;10376229;28;20194;-14
2021/04/25 13:05:05;;;;;;;3.90;0.40;;;21.10;34.30;;;;;;10377527;28;20221;-15
2021/04/25 13:10:32;;;;;;;2.80;0.40;;;21.20;34.70;;;;;;10375572;28;20191;-12
2021/04/25 13:15:53;;;;;;;0.67;0.37;;;21.10;35.10;;;;;;10376791;28;20664;-13
2021/04/25 13:21:16;;;;;;;1.20;0.30;;;21.20;35.40;;;;;;10375963;28;20225;-13
2021/04/25 13:26:38;;;;;;;1.33;0.40;;;21.10;35.70;;;;;;10410647;28;20224;-16
2021/04/25 13:32:00;;;;;;;2.33;0.33;;;21.20;35.90;;;;;;10457016;28;20213;-13
2021/04/25 13:37:22;;;;;;;2.80;0.57;;;21.20;35.90;;;;;;10434493;22;20236;-15
2021/04/25 13:42:44;;;;;;;1.03;0.30;;;21.30;36.10;;;;;;10412003;28;20747;-14
2021/04/25 13:48:06;;;;;;;0.30;0.30;;;21.40;36.30;;;;;;10404534;28;20226;-17
2021/04/25 13:53:29;;;;;;;6.13;0.60;;;21.40;36.00;;;;;;10398564;28;20716;-17
2021/04/25 13:58:50;;;;;;;4.07;0.50;;;21.40;36.20;;;;;;10384748;28;20602;-15
2021/04/25 14:04:12;;;;;;;2.20;0.23;;;21.40;36.60;;;;;;10404272;28;20221;-16
2021/04/25 14:09:34;;;;;;;2.10;0.57;;;21.20;36.70;;;;;;10410861;28;20248;-15
2021/04/25 14:14:56;;;;;;;0.70;0.40;;;21.10;37.30;;;;;;10409085;28;20221;-14
2021/04/25 14:20:20;;;;;;;1.80;0.33;;;21.00;37.40;;;;;;10403460;28;20193;-16
2021/04/25 14:25:43;;;;;;;2.27;0.47;;;21.00;37.80;;;;;;10411290;28;20217;-16
2021/04/25 14:31:04;;;;;;;1.57;0.40;;;21.10;37.80;;;;;;10410916;28;20635;-16
2021/04/25 14:36:26;;;;;;;5.67;0.50;;;21.10;38.00;;;;;;10380815;28;20698;-17
2021/04/25 14:41:49;;;;;;;2.20;0.80;;;21.00;37.80;;;;;;10369191;28;20245;-16
2021/04/25 14:47:10;;;;;;;5.47;1.00;;;21.00;38.00;;;;;;10369679;28;20222;-14
2021/04/25 14:52:32;;;;;;;3.33;0.60;;;21.00;38.40;;;;;;10369267;28;20740;-15
2021/04/25 14:57:55;;;;;;;1.87;0.30;;;21.00;38.30;;;;;;10399056;28;20221;-16
2021/04/25 15:03:17;;;;;;;0.53;0.40;;;20.90;38.10;;;;;;10409735;28;20190;-16
2021/04/25 15:08:38;;;;;;;0.73;0.53;;;20.80;38.00;;;;;;10408439;28;20248;-15
2021/04/25 15:14:01;;;;;;;1.00;0.50;;;20.90;37.30;;;;;;10409498;28;20221;-16
2021/04/25 15:19:22;;;;;;;1.47;0.43;;;20.50;28.40;;;;;;10397781;28;20204;-17
2021/04/25 15:24:44;;;;;;;2.37;0.97;;;20.20;26.00;;;;;;10408688;28;20221;-17
2021/04/25 15:30:11;;;;;;;1.20;0.70;;;20.10;24.20;;;;;;10398439;28;20625;-16
2021/04/25 15:35:33;;;;;;;1.10;0.50;;;20.00;24.40;;;;;;10375340;28;20260;-16
2021/04/25 15:40:55;;;;;;;1.83;0.70;;;20.20;26.80;;;;;;10415126;28;20677;-16
2021/04/25 15:46:18;;;;;;;0.97;0.50;;;20.50;29.20;;;;;;10418274;28;20209;-16
2021/04/25 15:51:41;;;;;;;1.33;0.60;;;20.60;30.70;;;;;;10381300;28;20206;-14
2021/04/25 15:57:03;;;;;;;0.93;0.40;;;20.80;31.50;;;;;;10399300;28;20927;-15
2021/04/25 16:02:27;;;;;;;0.87;0.50;;;20.90;32.10;;;;;;10417109;28;20600;-13
2021/04/25 16:07:50;;;;;;;1.50;0.57;;;21.00;32.50;;;;;;10410313;28;20712;-16
2021/04/25 16:13:13;;;;;;;3.30;0.60;;;20.80;32.10;;;;;;10402195;28;20229;-16
2021/04/25 16:18:35;;;;;;;1.87;0.50;;;20.90;33.20;;;;;;10391264;28;20224;-15
2021/04/25 16:23:57;;;;;;;0.50;0.50;;;20.80;33.70;;;;;;10415119;28;20251;-16
2021/04/25 16:29:18;;;;;;;0.60;0.40;;;20.80;33.90;;;;;;10334866;28;20214;-15
2021/04/25 16:34:41;;;;;;;1.70;0.60;;;20.90;33.70;;;;;;10333315;28;20273;-14
2021/04/25 16:40:04;;;;;;;1.47;0.40;;;21.10;33.80;;;;;;10333704;28;20230;-15
2021/04/25 16:45:25;;;;;;;2.83;0.57;;;21.10;34.70;;;;;;10332792;28;20207;-15
2021/04/25 16:50:48;;;;;;;3.67;0.70;;;21.20;34.10;;;;;;10332744;28;20250;-16
2021/04/25 16:56:10;;;;;;;1.73;0.77;;;21.20;34.20;;;;;;10365176;28;20245;-15
2021/04/25 17:01:31;;;;;;;2.80;0.60;;;21.30;34.30;;;;;;10413555;28;20205;-16
2021/04/25 17:06:54;;;;;;;1.93;0.50;;;21.30;34.60;;;;;;10410014;28;20224;-15
2021/04/25 17:12:16;;;;;;;7.50;0.90;;;21.40;34.80;;;;;;10375101;28;20241;-14
2021/04/25 17:17:38;;;;;;;15.97;1.67;;;21.40;35.10;;;;;;10371993;28;20214;-14
2021/04/25 17:23:00;;;;;;;5.67;0.87;;;21.40;34.90;;;;;;10370684;28;20191;-14
2021/04/25 17:28:22;;;;;;;6.03;1.00;;;21.40;34.90;;;;;;10372112;28;20618;-15
2021/04/25 17:33:48;;;;;;;7.63;1.03;;;21.40;35.20;;;;;;10369582;28;20280;-15
2021/04/25 17:39:10;;;;;;;2.43;0.40;;;21.40;35.20;;;;;;10371302;28;20277;-16
2021/04/25 17:44:32;;;;;;;3.70;0.60;;;21.50;35.30;;;;;;10379510;28;20224;-15
2021/04/25 17:49:54;;;;;;;2.20;0.47;;;21.50;35.40;;;;;;10407844;28;20213;-15
2021/04/25 17:55:16;;;;;;;1.27;0.33;;;21.50;35.70;;;;;;10379358;28;20228;-15
2021/04/25 18:00:38;;;;;;;5.53;0.60;;;21.40;36.50;;;;;;10411227;28;20194;-16
2021/04/25 18:05:59;;;;;;;1.93;0.60;;;21.30;36.50;;;;;;10376823;28;20218;-15
2021/04/25 18:11:22;;;;;;;2.73;0.70;;;21.20;36.50;;;;;;10399997;28;20206;-15
2021/04/25 18:16:44;;;;;;;3.00;0.40;;;21.10;36.80;;;;;;10411463;28;20218;-16
2021/04/25 18:22:06;;;;;;;1.97;0.53;;;21.10;36.90;;;;;;10377303;28;20229;-15
2021/04/25 18:27:28;;;;;;;2.10;0.50;;;21.00;37.10;;;;;;10369064;28;20222;-15
2021/04/25 18:32:51;;;;;;;3.07;0.50;;;21.00;37.90;;;;;;10368967;28;20210;-14
2021/04/25 18:38:15;;;;;;;2.47;0.57;;;20.90;37.40;;;;;;10369263;28;20226;-14
2021/04/25 18:43:37;;;;;;;0.83;0.40;;;20.90;37.40;;;;;;10369820;28;20543;-14
2021/04/25 18:48:59;;;;;;;1.17;0.60;;;20.90;37.70;;;;;;10368073;28;20201;-14
2021/04/25 18:54:21;;;;;;;1.73;0.50;;;20.90;37.70;;;;;;10367312;28;21384;-16
2021/04/25 18:59:43;;;;;;;0.60;0.50;;;20.90;37.80;;;;;;10409221;28;20216;-15
2021/04/25 19:05:06;;;;;;;0.90;0.60;;;20.90;37.90;;;;;;10410271;28;20609;-17
2021/04/25 19:10:27;;;;;;;1.10;0.60;;;21.00;37.60;;;;;;10398754;28;20208;-14
2021/04/25 19:15:50;;;;;;;1.03;0.50;;;21.00;37.90;;;;;;10406797;28;20218;-16
2021/04/25 19:21:13;;;;;;;0.83;0.50;;;20.90;37.90;;;;;;10407995;28;20276;-15
2021/04/25 19:26:34;;;;;;;1.87;0.60;;;20.90;38.10;;;;;;10407828;28;20213;-15
2021/04/25 19:31:57;;;;;;;0.67;0.50;;;20.90;38.20;;;;;;10365680;28;20574;-17
2021/04/25 19:37:19;;;;;;;1.60;0.50;;;20.80;38.10;;;;;;10434394;22;20217;-16
2021/04/25 19:42:41;;;;;;;1.67;0.50;;;21.00;38.20;;;;;;10428283;28;20248;-16
2021/04/25 19:48:06;;;;;;;0.90;0.60;;;21.00;37.90;;;;;;10419970;28;20213;-15
2021/04/25 19:53:29;;;;;;;1.17;0.50;;;20.90;38.00;;;;;;10439394;28;20209;-15
2021/04/25 19:58:50;;;;;;;1.20;0.53;;;20.90;38.10;;;;;;10429403;28;20302;-16
2021/04/25 20:04:13;;;;;;;1.03;0.60;;;20.90;37.90;;;;;;10445549;28;20204;-15
2021/04/25 20:09:34;;;;;;;1.60;0.67;;;21.00;37.80;;;;;;10435847;28;20207;-15
2021/04/25 20:14:56;;;;;;;3.13;0.50;;;21.00;38.00;;;;;;10440135;28;20704;-16
2021/04/25 20:20:21;;;;;;;0.80;0.80;;;20.90;37.80;;;;;;10433439;28;20197;-16
2021/04/25 20:25:44;;;;;;;1.13;0.50;;;20.90;37.60;;;;;;10446894;28;20211;-15
2021/04/25 20:31:08;;;;;;;1.00;0.90;;;21.00;37.50;;;;;;10444715;28;20204;-16
2021/04/25 20:36:30;;;;;;;1.23;0.70;;;20.90;37.80;;;;;;10455735;28;20728;-15
2021/04/25 20:41:52;;;;;;;1.33;0.83;;;20.80;37.50;;;;;;10450687;28;20200;-15
2021/04/25 20:47:14;;;;;;;2.50;0.90;;;20.80;37.80;;;;;;10436672;28;20225;-16
2021/04/25 20:52:36;;;;;;;1.13;0.83;;;20.80;37.90;;;;;;10434114;28;20216;-16
2021/04/25 20:57:58;;;;;;;0.83;0.67;;;20.80;38.30;;;;;;10431911;28;20226;-15
2021/04/25 21:03:20;;;;;;;1.30;0.67;;;20.80;38.30;;;;;;10453543;28;20189;-16
2021/04/25 21:08:48;;;;;;;1.90;0.77;;;20.70;38.10;;;;;;10438693;28;20209;-13
2021/04/25 21:14:10;;;;;;;2.00;1.00;;;20.80;38.40;;;;;;10434550;28;20214;-15
2021/04/25 21:19:31;;;;;;;1.47;0.80;;;20.70;38.10;;;;;;10451477;28;20580;-15
2021/04/25 21:24:54;;;;;;;0.93;0.60;;;20.70;38.00;;;;;;10421719;28;20229;-16
2021/04/25 21:30:17;;;;;;;1.60;0.87;;;20.70;38.50;;;;;;10435277;28;20635;-16
2021/04/25 21:35:38;;;;;;;1.50;0.87;;;20.70;37.70;;;;;;10451576;28;20232;-14
2021/04/25 21:41:01;;;;;;;1.30;1.00;;;20.60;38.20;;;;;;10452768;28;20204;-16
2021/04/25 21:46:22;;;;;;;1.03;0.87;;;20.60;38.20;;;;;;10454505;28;20262;-16
2021/04/25 21:51:44;;;;;;;0.80;0.80;;;20.60;38.20;;;;;;10453278;28;20200;-15
2021/04/25 21:57:06;;;;;;;1.00;0.70;;;20.60;38.60;;;;;;10430037;28;20236;-15
2021/04/25 22:02:28;;;;;;;0.77;0.77;;;20.50;38.50;;;;;;10423637;28;20197;-15
2021/04/25 22:07:50;;;;;;;1.03;0.93;;;20.50;38.50;;;;;;10437345;28;20213;-16
2021/04/25 22:13:12;;;;;;;1.33;0.83;;;20.50;38.30;;;;;;10412001;28;20221;-13
2021/04/25 22:18:35;;;;;;;0.70;0.60;;;20.50;38.40;;;;;;10443655;28;20223;-16
2021/04/25 22:23:56;;;;;;;0.80;0.70;;;20.50;38.00;;;;;;10444297;28;20190;-14
2021/04/25 22:29:19;;;;;;;1.17;0.90;;;20.40;38.60;;;;;;10452860;28;20197;-15
2021/04/25 22:34:40;;;;;;;0.80;0.80;;;20.40;38.60;;;;;;10452865;28;20224;-16
2021/04/25 22:40:04;;;;;;;1.00;0.80;;;20.50;38.50;;;;;;10452315;28;20671;-16
2021/04/25 22:45:26;;;;;;;0.80;0.60;;;20.40;38.40;;;;;;10448545;28;20216;-16
2021/04/25 22:50:48;;;;;;;1.30;0.80;;;20.40;38.70;;;;;;10441979;28;20197;-16
2021/04/25 22:56:10;;;;;;;0.90;0.83;;;20.40;38.30;;;;;;10435096;28;20221;-14
2021/04/25 23:01:33;;;;;;;0.90;0.60;;;20.40;38.60;;;;;;10410118;28;20272;-15
2021/04/25 23:06:55;;;;;;;0.77;0.70;;;20.40;38.80;;;;;;10411260;28;20221;-15
2021/04/25 23:12:17;;;;;;;1.00;0.80;;;20.40;38.80;;;;;;10409637;28;20273;-15
2021/04/25 23:17:40;;;;;;;1.60;0.70;;;20.40;38.60;;;;;;10410393;28;20593;-15
2021/04/25 23:23:04;;;;;;;1.13;0.73;;;20.40;38.60;;;;;;10410025;28;20605;-13
2021/04/25 23:28:26;;;;;;;0.77;0.77;;;20.40;38.40;;;;;;10416405;28;20228;-15
2021/04/25 23:33:48;;;;;;;1.60;0.70;;;20.40;38.00;;;;;;10442056;28;20224;-16
2021/04/25 23:39:10;;;;;;;0.80;0.73;;;20.40;37.80;;;;;;10450385;28;20228;-16
2021/04/25 23:44:31;;;;;;;1.57;0.63;;;20.40;38.40;;;;;;10444270;28;20209;-16
2021/04/25 23:49:54;;;;;;;0.80;0.63;;;20.40;37.90;;;;;;10448821;28;20201;-15
2021/04/25 23:55:16;;;;;;;1.23;0.90;;;20.50;38.20;;;;;;10452717;28;20213;-15
